Time;durP1;ratioP1;P1;durP2;ratioP2;P2;SDS_P1;SDS_P2;PMS_P1;PMS_P2;Temp;Humidity;BMP_temperature;BMP_pressure;BME280_temperature;BME280_humidity;BME280_pressure;Samples;Min_cycle;Max_cycle;Signal;HPM_P1;HPM_P2
2021/11/24 00:01:51;;;;;;;18.60;14.33;;;;;;;;;;5015422;28;20202;-77
2021/11/24 00:04:16;;;;;;;17.77;14.93;;;;;;;;;;5016411;28;20202;-81
2021/11/24 00:06:41;;;;;;;16.57;14.73;;;;;;;;;;5014790;28;20228;-78
2021/11/24 00:09:06;;;;;;;16.87;13.67;;;;;;;;;;5010361;28;20300;-80
2021/11/24 00:11:31;;;;;;;15.93;14.03;;;;;;;;;;5018153;28;20713;-79
2021/11/24 00:13:57;;;;;;;19.63;15.10;;;;;;;;;;5013844;28;20243;-77
2021/11/24 00:16:23;;;;;;;17.07;15.27;;;;;;;;;;5021604;28;20562;-77
2021/11/24 00:18:48;;;;;;;18.33;16.33;;;;;;;;;;5014749;28;20209;-75
2021/11/24 00:21:13;;;;;;;20.20;16.17;;;;;;;;;;5015954;28;20210;-74
2021/11/24 00:23:39;;;;;;;18.83;16.43;;;;;;;;;;5012464;28;20209;-75
2021/11/24 00:26:04;;;;;;;18.13;15.50;;;;;;;;;;5016912;28;21399;-75
2021/11/24 00:28:29;;;;;;;18.70;15.73;;;;;;;;;;5023997;28;20662;-78
2021/11/24 00:30:54;;;;;;;17.80;15.70;;;;;;;;;;5022530;28;20611;-76
2021/11/24 00:33:20;;;;;;;18.90;15.80;;;;;;;;;;5014592;28;20300;-80
2021/11/24 00:35:45;;;;;;;18.20;15.43;;;;;;;;;;5015958;28;20190;-79
2021/11/24 00:38:10;;;;;;;18.57;15.77;;;;;;;;;;5015402;28;20182;-80
2021/11/24 00:40:37;;;;;;;20.43;15.23;;;;;;;;;;5015644;28;20207;-78
2021/11/24 00:43:02;;;;;;;17.40;15.57;;;;;;;;;;5013273;28;20229;-79
2021/11/24 00:45:28;;;;;;;22.50;15.40;;;;;;;;;;5018483;28;21032;-76
2021/11/24 00:47:53;;;;;;;19.23;15.77;;;;;;;;;;5021067;28;20224;-77
2021/11/24 00:50:18;;;;;;;18.63;15.50;;;;;;;;;;5017765;28;20184;-80
2021/11/24 00:52:43;;;;;;;18.73;15.07;;;;;;;;;;5017378;28;20206;-80
2021/11/24 00:55:09;;;;;;;17.23;14.97;;;;;;;;;;5015717;28;20178;-80
2021/11/24 00:57:34;;;;;;;18.10;15.67;;;;;;;;;;5015909;28;20186;-79
2021/11/24 00:59:59;;;;;;;18.60;16.20;;;;;;;;;;5015886;28;20806;-77
2021/11/24 01:02:24;;;;;;;17.50;14.17;;;;;;;;;;5016876;28;20262;-74
2021/11/24 01:04:50;;;;;;;16.33;14.63;;;;;;;;;;5015310;28;20186;-77
2021/11/24 01:07:15;;;;;;;18.93;15.10;;;;;;;;;;5015662;28;20178;-75
2021/11/24 01:09:40;;;;;;;19.23;14.97;;;;;;;;;;5015877;28;20186;-75
2021/11/24 01:12:06;;;;;;;17.13;14.90;;;;;;;;;;5017177;28;20186;-74
2021/11/24 01:14:31;;;;;;;18.80;14.53;;;;;;;;;;5014449;28;20241;-74
2021/11/24 01:16:56;;;;;;;14.83;12.87;;;;;;;;;;5020962;28;20301;-78
2021/11/24 01:19:21;;;;;;;15.40;12.80;;;;;;;;;;5014858;28;20240;-76
2021/11/24 01:21:46;;;;;;;16.37;13.60;;;;;;;;;;5013599;28;22400;-76
2021/11/24 01:24:12;;;;;;;19.00;15.33;;;;;;;;;;5014065;28;20625;-74
2021/11/24 01:26:38;;;;;;;15.47;13.60;;;;;;;;;;5012145;28;20660;-75
2021/11/24 01:29:04;;;;;;;19.47;13.43;;;;;;;;;;5015260;28;20257;-74
2021/11/24 01:31:29;;;;;;;18.97;15.43;;;;;;;;;;5012906;28;20241;-74
2021/11/24 01:33:54;;;;;;;17.43;14.77;;;;;;;;;;5013661;28;20198;-77
2021/11/24 01:36:19;;;;;;;21.97;13.77;;;;;;;;;;5016264;28;20225;-80
2021/11/24 01:38:45;;;;;;;17.93;13.97;;;;;;;;;;5013980;28;20175;-80
2021/11/24 01:41:11;;;;;;;20.17;14.40;;;;;;;;;;5013426;28;20217;-80
2021/11/24 01:43:36;;;;;;;16.80;13.27;;;;;;;;;;5013760;28;21578;-78
2021/11/24 01:46:01;;;;;;;16.70;14.10;;;;;;;;;;5017833;28;20713;-76
2021/11/24 01:48:27;;;;;;;18.80;13.23;;;;;;;;;;5015373;28;20186;-78
2021/11/24 01:50:52;;;;;;;19.17;13.47;;;;;;;;;;5015340;28;20659;-76
2021/11/24 01:53:17;;;;;;;15.80;13.47;;;;;;;;;;5014289;28;20722;-80
2021/11/24 01:55:43;;;;;;;14.73;12.23;;;;;;;;;;5013176;28;20190;-78
2021/11/24 01:58:08;;;;;;;15.87;12.67;;;;;;;;;;5010617;28;20614;-77
2021/11/24 02:00:34;;;;;;;19.13;13.53;;;;;;;;;;5015547;28;20206;-75
2021/11/24 02:02:59;;;;;;;16.20;12.80;;;;;;;;;;5015860;28;20205;-81
2021/11/24 02:05:25;;;;;;;20.23;15.07;;;;;;;;;;5015010;28;20184;-79
2021/11/24 02:07:50;;;;;;;15.97;12.63;;;;;;;;;;5015285;28;20181;-80
2021/11/24 02:10:18;;;;;;;14.33;12.33;;;;;;;;;;5015726;28;20529;-78
2021/11/24 02:12:43;;;;;;;15.00;12.10;;;;;;;;;;5016485;28;20360;-77
2021/11/24 02:15:09;;;;;;;15.70;13.97;;;;;;;;;;5014950;28;20692;-75
2021/11/24 02:17:34;;;;;;;16.87;13.17;;;;;;;;;;5017358;28;20185;-76
2021/11/24 02:20:00;;;;;;;14.90;12.40;;;;;;;;;;5006545;28;20206;-74
2021/11/24 02:22:25;;;;;;;17.10;12.20;;;;;;;;;;5012686;28;20651;-78
2021/11/24 02:24:50;;;;;;;15.33;11.67;;;;;;;;;;5013752;28;20261;-77
2021/11/24 02:27:15;;;;;;;15.27;11.33;;;;;;;;;;5012206;28;20185;-77
2021/11/24 02:29:41;;;;;;;15.43;12.20;;;;;;;;;;5015045;28;21020;-76
2021/11/24 02:32:07;;;;;;;14.33;11.83;;;;;;;;;;5012110;28;20194;-80
2021/11/24 02:34:33;;;;;;;14.37;12.80;;;;;;;;;;5012881;28;20214;-77
2021/11/24 02:36:58;;;;;;;14.43;11.00;;;;;;;;;;5017156;28;20191;-77
2021/11/24 02:39:23;;;;;;;14.37;11.73;;;;;;;;;;5013131;28;20193;-78
2021/11/24 02:41:49;;;;;;;14.67;12.20;;;;;;;;;;5014349;28;20392;-76
2021/11/24 02:44:14;;;;;;;14.00;12.00;;;;;;;;;;5013133;28;20631;-76
2021/11/24 02:46:39;;;;;;;14.93;12.27;;;;;;;;;;5020347;28;20253;-74
2021/11/24 02:49:04;;;;;;;16.10;12.70;;;;;;;;;;5023552;28;20174;-76
2021/11/24 02:51:29;;;;;;;14.70;11.87;;;;;;;;;;5028554;28;20643;-74
2021/11/24 02:53:54;;;;;;;14.40;11.40;;;;;;;;;;5041510;28;20242;-76
2021/11/24 02:56:20;;;;;;;18.13;12.73;;;;;;;;;;5042378;28;20205;-74
2021/11/24 02:58:45;;;;;;;14.53;12.47;;;;;;;;;;5044410;28;20182;-77
2021/11/24 03:01:10;;;;;;;15.57;12.77;;;;;;;;;;5039092;28;20202;-74
2021/11/24 03:03:35;;;;;;;17.00;14.03;;;;;;;;;;5038170;28;20279;-77
2021/11/24 03:06:00;;;;;;;17.23;13.73;;;;;;;;;;5030211;28;20202;-77
2021/11/24 03:08:26;;;;;;;20.90;14.03;;;;;;;;;;5030770;28;20269;-77
2021/11/24 03:10:51;;;;;;;17.27;13.97;;;;;;;;;;5019721;28;20186;-75
2021/11/24 03:13:16;;;;;;;17.17;13.73;;;;;;;;;;5014240;28;20213;-79
2021/11/24 03:15:41;;;;;;;17.97;14.73;;;;;;;;;;5013566;28;20182;-75
2021/11/24 03:18:07;;;;;;;20.13;14.03;;;;;;;;;;5017994;28;20190;-75
2021/11/24 03:20:32;;;;;;;16.43;13.90;;;;;;;;;;5012158;28;20217;-75
2021/11/24 03:22:58;;;;;;;17.77;14.03;;;;;;;;;;5012782;28;20917;-76
2021/11/24 03:25:23;;;;;;;20.10;14.90;;;;;;;;;;5014114;28;20182;-77
2021/11/24 03:27:48;;;;;;;15.33;13.73;;;;;;;;;;5014272;28;20183;-77
2021/11/24 03:30:15;;;;;;;17.53;13.87;;;;;;;;;;5013744;28;20728;-77
2021/11/24 03:32:40;;;;;;;19.77;14.97;;;;;;;;;;5012261;28;20217;-76
2021/11/24 03:35:06;;;;;;;18.10;14.03;;;;;;;;;;5011160;28;20182;-77
2021/11/24 03:37:31;;;;;;;15.60;13.90;;;;;;;;;;5011293;28;20189;-77
2021/11/24 03:39:56;;;;;;;19.63;14.87;;;;;;;;;;5013711;28;20752;-76
2021/11/24 03:42:21;;;;;;;17.97;14.83;;;;;;;;;;5015295;28;20916;-77
2021/11/24 03:44:47;;;;;;;17.20;14.50;;;;;;;;;;5016551;28;21815;-75
2021/11/24 03:47:12;;;;;;;16.20;13.40;;;;;;;;;;5018680;28;20715;-76
2021/11/24 03:49:38;;;;;;;17.37;14.30;;;;;;;;;;5015062;28;20223;-76
2021/11/24 03:52:04;;;;;;;17.30;13.43;;;;;;;;;;5014192;28;20193;-76
2021/11/24 03:54:29;;;;;;;19.13;15.50;;;;;;;;;;5015203;28;20205;-81
2021/11/24 03:56:54;;;;;;;16.97;13.27;;;;;;;;;;5016210;28;20177;-75
2021/11/24 03:59:19;;;;;;;15.33;12.53;;;;;;;;;;5016561;28;20186;-76
2021/11/24 04:01:45;;;;;;;17.13;14.63;;;;;;;;;;5015513;28;20726;-75
2021/11/24 04:04:10;;;;;;;16.67;13.80;;;;;;;;;;5019409;28;20263;-75
2021/11/24 04:06:35;;;;;;;16.10;13.67;;;;;;;;;;5015476;28;20190;-79
2021/11/24 04:09:00;;;;;;;16.60;12.30;;;;;;;;;;5015841;28;20249;-76
2021/11/24 04:11:26;;;;;;;16.00;12.87;;;;;;;;;;5016467;28;20189;-75
2021/11/24 04:13:51;;;;;;;17.53;12.53;;;;;;;;;;5016931;28;20214;-75
2021/11/24 04:16:17;;;;;;;16.50;13.40;;;;;;;;;;5020156;28;20194;-76
2021/11/24 04:18:42;;;;;;;15.90;12.97;;;;;;;;;;5014923;28;20196;-79
2021/11/24 04:21:07;;;;;;;14.97;12.13;;;;;;;;;;5018706;28;20248;-78
2021/11/24 04:23:32;;;;;;;18.00;13.27;;;;;;;;;;5014740;28;20933;-76
2021/11/24 04:25:57;;;;;;;19.83;13.80;;;;;;;;;;5014625;28;20412;-76
2021/11/24 04:28:23;;;;;;;17.07;12.73;;;;;;;;;;5013421;28;20205;-76
2021/11/24 04:30:48;;;;;;;16.03;13.57;;;;;;;;;;5015627;28;20210;-76
2021/11/24 04:33:13;;;;;;;16.17;12.40;;;;;;;;;;5014702;28;20679;-77
2021/11/24 04:35:39;;;;;;;16.10;12.80;;;;;;;;;;5023158;28;20190;-75
2021/11/24 04:38:05;;;;;;;17.00;12.57;;;;;;;;;;5015679;28;20288;-75
2021/11/24 04:40:30;;;;;;;14.80;12.70;;;;;;;;;;5014762;28;20198;-79
2021/11/24 04:42:56;;;;;;;14.70;12.57;;;;;;;;;;5014489;28;20194;-76
2021/11/24 04:45:22;;;;;;;20.27;12.90;;;;;;;;;;5014939;28;20179;-76
2021/11/24 04:47:47;;;;;;;15.53;12.50;;;;;;;;;;5024448;28;20252;-78
2021/11/24 04:50:14;;;;;;;16.00;12.67;;;;;;;;;;5015444;28;20183;-76
2021/11/24 04:52:39;;;;;;;16.53;12.13;;;;;;;;;;5017307;28;20209;-79
2021/11/24 04:55:05;;;;;;;17.27;13.07;;;;;;;;;;5015782;28;20175;-76
2021/11/24 04:57:30;;;;;;;18.20;13.20;;;;;;;;;;5014698;28;20190;-75
2021/11/24 04:59:55;;;;;;;15.67;12.00;;;;;;;;;;5016549;28;20192;-77
2021/11/24 05:02:20;;;;;;;17.53;12.40;;;;;;;;;;5027654;28;20208;-75
2021/11/24 05:04:45;;;;;;;17.17;13.23;;;;;;;;;;5014265;28;20783;-76
2021/11/24 05:07:11;;;;;;;18.10;12.60;;;;;;;;;;5015078;28;22064;-76
2021/11/24 05:09:36;;;;;;;16.57;11.83;;;;;;;;;;5015897;28;20664;-76
2021/11/24 05:12:03;;;;;;;19.77;13.43;;;;;;;;;;5018649;28;20190;-77
2021/11/24 05:14:33;;;;;;;21.23;15.17;;;;;;;;;;5013703;28;20571;-76
2021/11/24 05:17:00;;;;;;;23.90;16.23;;;;;;;;;;5016656;28;20730;-80
2021/11/24 05:19:27;;;;;;;18.67;14.70;;;;;;;;;;5014917;28;20179;-76
2021/11/24 05:21:54;;;;;;;22.97;15.20;;;;;;;;;;5012256;28;20305;-77
2021/11/24 05:24:20;;;;;;;20.87;15.23;;;;;;;;;;5012530;28;20287;-76
2021/11/24 05:26:45;;;;;;;20.10;14.87;;;;;;;;;;5020394;28;20178;-80
2021/11/24 05:29:11;;;;;;;22.83;15.17;;;;;;;;;;5027072;28;20187;-76
2021/11/24 05:31:36;;;;;;;21.90;15.63;;;;;;;;;;5016683;28;20182;-77
2021/11/24 05:34:03;;;;;;;26.03;16.80;;;;;;;;;;5015112;28;20590;-76
2021/11/24 05:36:28;;;;;;;23.30;15.97;;;;;;;;;;5012991;28;20313;-76
2021/11/24 05:38:53;;;;;;;22.20;16.00;;;;;;;;;;5013734;28;20174;-76
2021/11/24 05:41:18;;;;;;;26.23;16.97;;;;;;;;;;5015237;28;20194;-75
2021/11/24 05:43:45;;;;;;;23.33;15.73;;;;;;;;;;5014416;28;20213;-75
2021/11/24 05:46:14;;;;;;;23.97;16.23;;;;;;;;;;5015610;28;22237;-76
2021/11/24 05:48:41;;;;;;;22.70;15.33;;;;;;;;;;5014770;28;20185;-75
2021/11/24 05:51:06;;;;;;;25.30;16.50;;;;;;;;;;5013723;28;20197;-76
2021/11/24 05:53:31;;;;;;;27.30;19.00;;;;;;;;;;5014684;28;22397;-77
2021/11/24 05:55:58;;;;;;;26.87;19.73;;;;;;;;;;5015938;28;20190;-77
2021/11/24 05:58:23;;;;;;;27.73;17.53;;;;;;;;;;5016053;28;20238;-76
2021/11/24 06:00:48;;;;;;;27.33;18.47;;;;;;;;;;5014822;28;20205;-76
2021/11/24 06:03:14;;;;;;;28.30;19.03;;;;;;;;;;5014398;28;20564;-75
2021/11/24 06:05:39;;;;;;;28.00;19.63;;;;;;;;;;5013982;28;20268;-80
2021/11/24 06:08:04;;;;;;;30.63;20.17;;;;;;;;;;5022991;28;20174;-76
2021/11/24 06:10:30;;;;;;;28.40;20.20;;;;;;;;;;5013183;28;20664;-75
2021/11/24 06:12:55;;;;;;;33.07;22.00;;;;;;;;;;5011511;28;20645;-76
2021/11/24 06:15:20;;;;;;;35.00;22.30;;;;;;;;;;5015841;28;20287;-77
2021/11/24 06:17:46;;;;;;;32.70;22.83;;;;;;;;;;5015005;28;20391;-76
2021/11/24 06:20:12;;;;;;;31.37;23.03;;;;;;;;;;5014010;28;20228;-76
2021/11/24 06:22:38;;;;;;;31.77;21.93;;;;;;;;;;5012428;28;20576;-78
2021/11/24 06:25:04;;;;;;;33.93;22.63;;;;;;;;;;5013607;28;20182;-80
2021/11/24 06:27:29;;;;;;;36.20;23.27;;;;;;;;;;5012858;28;20679;-79
2021/11/24 06:29:54;;;;;;;34.63;22.60;;;;;;;;;;5014977;28;20181;-76
2021/11/24 06:32:20;;;;;;;31.80;20.83;;;;;;;;;;5013441;28;20182;-78
2021/11/24 06:34:45;;;;;;;37.63;22.10;;;;;;;;;;5011677;28;20186;-77
2021/11/24 06:37:10;;;;;;;34.03;23.03;;;;;;;;;;5013573;28;20178;-79
2021/11/24 06:39:35;;;;;;;31.67;21.07;;;;;;;;;;5014630;28;20920;-75
2021/11/24 06:42:00;;;;;;;38.17;22.37;;;;;;;;;;5014179;28;20241;-76
2021/11/24 06:44:26;;;;;;;37.00;21.17;;;;;;;;;;5014803;28;20240;-75
2021/11/24 06:46:51;;;;;;;32.33;21.63;;;;;;;;;;5016249;28;20182;-75
2021/11/24 06:49:16;;;;;;;29.03;20.30;;;;;;;;;;5012905;28;20178;-78
2021/11/24 06:51:42;;;;;;;31.67;20.73;;;;;;;;;;5013568;28;20502;-76
2021/11/24 06:54:07;;;;;;;36.67;23.20;;;;;;;;;;5011152;28;20217;-77
2021/11/24 06:56:32;;;;;;;35.93;24.10;;;;;;;;;;5014750;28;20189;-77
2021/11/24 06:58:57;;;;;;;35.17;23.20;;;;;;;;;;5015867;28;20178;-80
2021/11/24 07:01:23;;;;;;;36.03;24.60;;;;;;;;;;5011138;28;20214;-78
2021/11/24 07:03:48;;;;;;;31.50;22.50;;;;;;;;;;5013281;28;20256;-79
2021/11/24 07:06:13;;;;;;;35.50;23.20;;;;;;;;;;5014275;28;20174;-79
2021/11/24 07:08:38;;;;;;;36.40;23.73;;;;;;;;;;5012712;28;20190;-78
2021/11/24 07:11:03;;;;;;;38.53;25.40;;;;;;;;;;5013740;28;20735;-79
2021/11/24 07:13:29;;;;;;;33.53;23.07;;;;;;;;;;5015082;28;20348;-76
2021/11/24 07:15:54;;;;;;;30.83;22.50;;;;;;;;;;5015708;28;20264;-76
2021/11/24 07:18:19;;;;;;;40.40;24.03;;;;;;;;;;5023597;28;20182;-77
2021/11/24 07:20:44;;;;;;;35.13;24.47;;;;;;;;;;5014642;28;20209;-76
2021/11/24 07:23:09;;;;;;;37.60;23.53;;;;;;;;;;5017051;28;20236;-79
2021/11/24 07:25:35;;;;;;;37.10;25.03;;;;;;;;;;5017557;28;21207;-76
2021/11/24 07:28:00;;;;;;;35.67;24.20;;;;;;;;;;5018087;28;20189;-80
2021/11/24 07:30:25;;;;;;;35.73;25.83;;;;;;;;;;5017786;28;20204;-76
2021/11/24 07:32:51;;;;;;;40.90;25.30;;;;;;;;;;5016380;28;20220;-79
2021/11/24 07:35:16;;;;;;;37.00;24.77;;;;;;;;;;5017988;28;20199;-77
2021/11/24 07:37:41;;;;;;;36.13;24.27;;;;;;;;;;5016758;28;20247;-76
2021/11/24 07:40:08;;;;;;;39.50;25.47;;;;;;;;;;5015527;28;20234;-76
2021/11/24 07:42:33;;;;;;;34.70;23.33;;;;;;;;;;5017262;28;20212;-77
2021/11/24 07:44:59;;;;;;;35.40;23.90;;;;;;;;;;5015920;28;20588;-75
2021/11/24 07:47:24;;;;;;;37.00;25.43;;;;;;;;;;5017709;28;20659;-76
2021/11/24 07:49:49;;;;;;;35.20;24.10;;;;;;;;;;5016352;28;20639;-81
2021/11/24 07:52:15;;;;;;;37.97;24.63;;;;;;;;;;5017293;28;20182;-78
2021/11/24 07:54:40;;;;;;;33.10;23.40;;;;;;;;;;5017971;28;20566;-75
2021/11/24 07:57:05;;;;;;;33.27;23.67;;;;;;;;;;5025363;28;20186;-79
2021/11/24 07:59:30;;;;;;;33.57;23.43;;;;;;;;;;5027266;28;20182;-77
2021/11/24 08:01:55;;;;;;;33.07;23.80;;;;;;;;;;5020415;28;20256;-79
2021/11/24 08:04:21;;;;;;;30.77;21.90;;;;;;;;;;5018383;28;20388;-76
2021/11/24 08:06:46;;;;;;;32.03;23.03;;;;;;;;;;5016628;28;20182;-75
2021/11/24 08:09:11;;;;;;;35.67;23.63;;;;;;;;;;5014897;28;21632;-75
2021/11/24 08:11:36;;;;;;;31.43;22.10;;;;;;;;;;5017951;28;20279;-75
2021/11/24 08:14:02;;;;;;;36.00;24.33;;;;;;;;;;5018878;28;20222;-79
2021/11/24 08:16:27;;;;;;;33.37;24.23;;;;;;;;;;5018166;28;20879;-75
2021/11/24 08:18:53;;;;;;;33.73;23.37;;;;;;;;;;5017581;28;20183;-75
2021/11/24 08:21:18;;;;;;;32.00;23.80;;;;;;;;;;5017229;28;20547;-74
2021/11/24 08:23:43;;;;;;;30.80;22.70;;;;;;;;;;5013559;28;20287;-78
2021/11/24 08:26:09;;;;;;;35.73;24.20;;;;;;;;;;5017159;28;20175;-75
2021/11/24 08:28:34;;;;;;;31.57;22.83;;;;;;;;;;5015647;28;20181;-80
2021/11/24 08:30:59;;;;;;;31.10;23.27;;;;;;;;;;5016218;28;20190;-79
2021/11/24 08:33:24;;;;;;;29.50;21.47;;;;;;;;;;5016919;28;20201;-77
2021/11/24 08:35:50;;;;;;;32.43;23.43;;;;;;;;;;5014537;28;20308;-79
2021/11/24 08:38:16;;;;;;;29.33;21.37;;;;;;;;;;5016399;28;20186;-77
2021/11/24 08:40:41;;;;;;;30.10;21.27;;;;;;;;;;5015258;28;20205;-80
2021/11/24 08:43:06;;;;;;;30.23;21.13;;;;;;;;;;5013293;28;20190;-81
2021/11/24 08:45:33;;;;;;;32.77;22.00;;;;;;;;;;5015079;28;20178;-79
2021/11/24 08:47:58;;;;;;;30.00;20.90;;;;;;;;;;5018326;28;20218;-76
2021/11/24 08:50:23;;;;;;;27.20;20.57;;;;;;;;;;5019792;28;20677;-78
2021/11/24 08:52:49;;;;;;;28.40;20.53;;;;;;;;;;5018817;28;20198;-78
2021/11/24 08:55:14;;;;;;;27.27;19.50;;;;;;;;;;5017838;28;20214;-77
2021/11/24 08:57:40;;;;;;;28.03;21.00;;;;;;;;;;5016263;28;21107;-77
2021/11/24 09:00:10;;;;;;;25.73;20.00;;;;;;;;;;5019450;28;20193;-77
2021/11/24 09:02:36;;;;;;;28.23;21.07;;;;;;;;;;5017847;28;21027;-75
2021/11/24 09:05:02;;;;;;;25.93;19.60;;;;;;;;;;5017653;28;20193;-77
2021/11/24 09:07:28;;;;;;;25.93;18.57;;;;;;;;;;5018356;28;20179;-75
2021/11/24 09:09:53;;;;;;;23.13;17.73;;;;;;;;;;5018098;28;20178;-76
2021/11/24 09:12:18;;;;;;;25.10;19.80;;;;;;;;;;5016852;28;20178;-79
2021/11/24 09:14:43;;;;;;;22.10;17.97;;;;;;;;;;5017324;28;20656;-78
2021/11/24 09:17:09;;;;;;;23.37;17.87;;;;;;;;;;5028917;28;20182;-76
2021/11/24 09:19:34;;;;;;;21.47;16.50;;;;;;;;;;5021793;28;20660;-75
2021/11/24 09:22:00;;;;;;;23.47;18.00;;;;;;;;;;5016783;28;20651;-76
2021/11/24 09:24:26;;;;;;;21.90;17.33;;;;;;;;;;5019295;28;20202;-79
2021/11/24 09:29:20;;;;;;;21.67;17.40;;;;;;;;;;5018678;28;20228;-78
2021/11/24 09:31:45;;;;;;;21.87;17.73;;;;;;;;;;5017276;28;20183;-80
2021/11/24 09:34:10;;;;;;;24.53;19.13;;;;;;;;;;5019431;28;20324;-77
2021/11/24 09:36:37;;;;;;;22.73;17.30;;;;;;;;;;5016388;28;20244;-76
2021/11/24 09:39:03;;;;;;;27.17;19.27;;;;;;;;;;5015724;28;20281;-76
2021/11/24 09:41:28;;;;;;;23.87;18.13;;;;;;;;;;5016435;28;20210;-79
2021/11/24 09:43:55;;;;;;;26.23;17.57;;;;;;;;;;5015987;28;20534;-76
2021/11/24 09:46:21;;;;;;;23.47;19.30;;;;;;;;;;5018819;28;20672;-76
2021/11/24 09:48:48;;;;;;;24.97;18.43;;;;;;;;;;5017086;28;20192;-79
2021/11/24 09:51:13;;;;;;;25.37;20.20;;;;;;;;;;5018010;28;20581;-77
2021/11/24 09:53:39;;;;;;;25.57;20.13;;;;;;;;;;5016225;28;20209;-77
2021/11/24 09:56:04;;;;;;;24.77;19.37;;;;;;;;;;5016717;28;20190;-76
2021/11/24 09:58:30;;;;;;;23.23;18.50;;;;;;;;;;5015757;28;20337;-81
2021/11/24 10:00:57;;;;;;;23.40;19.43;;;;;;;;;;5016643;28;20296;-80
2021/11/24 10:03:23;;;;;;;24.87;19.27;;;;;;;;;;5013557;28;20210;-78
2021/11/24 10:05:48;;;;;;;22.23;17.70;;;;;;;;;;5018021;28;20239;-76
2021/11/24 10:08:14;;;;;;;25.60;20.17;;;;;;;;;;5015827;28;20636;-78
2021/11/24 10:10:39;;;;;;;23.07;19.53;;;;;;;;;;5016377;28;20194;-76
2021/11/24 10:13:04;;;;;;;27.53;20.27;;;;;;;;;;5015258;28;20278;-76
2021/11/24 10:15:32;;;;;;;23.00;18.83;;;;;;;;;;5032644;28;20192;-75
2021/11/24 10:18:13;;;;;;;25.30;18.90;;;;;;;;;;5018596;28;20170;-75
2021/11/24 10:21:04;;;;;;;22.07;19.03;;;;;;;;;;5016160;28;21616;-75
2021/11/24 10:23:40;;;;;;;24.17;18.83;;;;;;;;;;5015458;28;20214;-77
2021/11/24 10:26:15;;;;;;;22.70;18.40;;;;;;;;;;5015844;28;20190;-79
2021/11/24 10:28:47;;;;;;;24.50;18.43;;;;;;;;;;5015904;28;20173;-80
2021/11/24 10:31:22;;;;;;;22.27;18.57;;;;;;;;;;5019238;28;20284;-77
2021/11/24 10:33:47;;;;;;;22.40;19.10;;;;;;;;;;5014243;28;20260;-81
2021/11/24 10:36:12;;;;;;;25.53;20.67;;;;;;;;;;5018070;28;20270;-76
2021/11/24 10:38:39;;;;;;;23.30;18.77;;;;;;;;;;5018018;28;20540;-76
2021/11/24 10:41:05;;;;;;;26.70;21.50;;;;;;;;;;5030762;28;20256;-77
2021/11/24 10:43:38;;;;;;;23.87;19.57;;;;;;;;;;5017048;28;20203;-77
2021/11/24 10:46:04;;;;;;;23.93;20.60;;;;;;;;;;5020370;28;20265;-79
2021/11/24 10:48:30;;;;;;;25.33;19.97;;;;;;;;;;5017324;28;20690;-76
2021/11/24 10:50:55;;;;;;;22.43;18.43;;;;;;;;;;5014867;28;20186;-78
2021/11/24 10:53:21;;;;;;;23.67;19.73;;;;;;;;;;5018412;28;20209;-77
2021/11/24 10:55:46;;;;;;;23.50;20.97;;;;;;;;;;5019690;28;20189;-78
2021/11/24 10:58:19;;;;;;;26.63;22.17;;;;;;;;;;5018185;28;20188;-76
2021/11/24 11:00:46;;;;;;;24.37;20.27;;;;;;;;;;5020951;28;20213;-76
2021/11/24 11:03:11;;;;;;;23.53;19.73;;;;;;;;;;5021799;28;20713;-78
2021/11/24 11:05:40;;;;;;;23.70;19.37;;;;;;;;;;5019700;28;20348;-80
2021/11/24 11:08:07;;;;;;;25.73;19.77;;;;;;;;;;5018431;28;20603;-77
2021/11/24 11:10:33;;;;;;;23.47;20.67;;;;;;;;;;5018683;28;20178;-79
2021/11/24 11:13:11;;;;;;;23.57;20.13;;;;;;;;;;5019131;28;20452;-80
2021/11/24 11:15:36;;;;;;;21.63;19.30;;;;;;;;;;5016501;28;20178;-76
2021/11/24 11:18:03;;;;;;;23.50;19.10;;;;;;;;;;5034016;28;20174;-77
2021/11/24 11:20:49;;;;;;;24.00;18.93;;;;;;;;;;5021954;28;20210;-77
2021/11/24 11:23:23;;;;;;;24.40;19.33;;;;;;;;;;5022398;28;20190;-79
2021/11/24 11:25:50;;;;;;;21.40;18.70;;;;;;;;;;5016958;28;20197;-80
2021/11/24 11:28:17;;;;;;;22.27;18.60;;;;;;;;;;5020646;28;20186;-77
2021/11/24 11:30:46;;;;;;;23.63;19.80;;;;;;;;;;5018615;28;20337;-76
2021/11/24 11:33:13;;;;;;;23.97;20.10;;;;;;;;;;5018183;28;20210;-79
2021/11/24 11:35:39;;;;;;;21.30;18.63;;;;;;;;;;5017375;28;20857;-80
2021/11/24 11:38:04;;;;;;;21.03;18.30;;;;;;;;;;5020411;28;20671;-78
2021/11/24 11:40:30;;;;;;;21.60;18.67;;;;;;;;;;5020513;28;20182;-76
2021/11/24 11:42:57;;;;;;;21.97;18.03;;;;;;;;;;5019697;28;20206;-76
2021/11/24 11:45:22;;;;;;;24.93;17.87;;;;;;;;;;5020098;28;20570;-76
2021/11/24 11:47:47;;;;;;;19.43;17.33;;;;;;;;;;5029642;28;20179;-77
2021/11/24 11:50:13;;;;;;;22.43;18.83;;;;;;;;;;5034361;28;20589;-76
2021/11/24 11:52:39;;;;;;;20.53;17.57;;;;;;;;;;5035368;28;20202;-76
2021/11/24 11:55:20;;;;;;;21.43;18.27;;;;;;;;;;5031991;28;20180;-76
2021/11/24 11:57:45;;;;;;;20.47;16.80;;;;;;;;;;5030882;28;20277;-76
2021/11/24 12:00:11;;;;;;;20.87;17.77;;;;;;;;;;5031808;28;20333;-75
2021/11/24 12:02:47;;;;;;;20.93;17.47;;;;;;;;;;5017200;28;20230;-76
2021/11/24 12:05:12;;;;;;;18.97;16.97;;;;;;;;;;5017398;28;20335;-80
2021/11/24 12:07:58;;;;;;;21.77;18.30;;;;;;;;;;5018609;28;20174;-81
2021/11/24 12:10:43;;;;;;;20.67;17.97;;;;;;;;;;5016024;28;20187;-76
2021/11/24 12:13:08;;;;;;;22.40;17.47;;;;;;;;;;5032616;28;20952;-76
2021/11/24 12:15:34;;;;;;;21.33;18.50;;;;;;;;;;5022401;28;20171;-76
2021/11/24 12:18:11;;;;;;;19.40;17.37;;;;;;;;;;5019442;28;20186;-76
2021/11/24 12:20:40;;;;;;;18.07;16.17;;;;;;;;;;5017388;28;20310;-77
2021/11/24 12:23:11;;;;;;;19.20;16.17;;;;;;;;;;5021551;28;20307;-80
2021/11/24 12:25:36;;;;;;;18.37;16.20;;;;;;;;;;5017060;28;20181;-76
2021/11/24 12:28:05;;;;;;;20.00;17.73;;;;;;;;;;5015463;28;20182;-78
2021/11/24 12:30:41;;;;;;;18.70;16.70;;;;;;;;;;5018305;28;20182;-74
2021/11/24 12:33:25;;;;;;;20.17;17.90;;;;;;;;;;5014390;28;20205;-79
2021/11/24 12:36:05;;;;;;;21.77;18.33;;;;;;;;;;5031929;28;20205;-78
2021/11/24 12:38:30;;;;;;;21.63;17.57;;;;;;;;;;5019023;28;20186;-79
2021/11/24 12:40:56;;;;;;;20.83;18.40;;;;;;;;;;5032682;28;20248;-76
2021/11/24 12:43:23;;;;;;;23.63;19.23;;;;;;;;;;5018938;28;20202;-78
2021/11/24 12:46:07;;;;;;;22.20;19.50;;;;;;;;;;5019046;28;20588;-77
2021/11/24 12:48:46;;;;;;;21.63;18.13;;;;;;;;;;5012848;28;20920;-76
2021/11/24 12:51:17;;;;;;;20.93;17.37;;;;;;;;;;5016561;28;20186;-79
2021/11/24 12:53:42;;;;;;;22.77;18.43;;;;;;;;;;5016169;28;20964;-77
2021/11/24 12:56:09;;;;;;;19.50;17.03;;;;;;;;;;5017222;28;20317;-78
2021/11/24 12:58:35;;;;;;;20.37;16.10;;;;;;;;;;5018295;28;20194;-78
2021/11/24 13:01:20;;;;;;;20.33;15.83;;;;;;;;;;5023849;28;20637;-76
2021/11/24 13:03:46;;;;;;;15.47;13.83;;;;;;;;;;5017029;28;20213;-77
2021/11/24 13:06:12;;;;;;;15.93;13.77;;;;;;;;;;5015922;28;20212;-76
2021/11/24 13:08:37;;;;;;;15.97;14.13;;;;;;;;;;5013261;28;21868;-79
2021/11/24 13:11:04;;;;;;;16.10;14.23;;;;;;;;;;5015495;28;20269;-78
2021/11/24 13:13:29;;;;;;;16.23;14.47;;;;;;;;;;5013375;28;20801;-78
2021/11/24 13:15:54;;;;;;;17.87;15.97;;;;;;;;;;5020044;28;20228;-78
2021/11/24 13:18:23;;;;;;;18.80;16.70;;;;;;;;;;5016708;28;20235;-78
2021/11/24 13:20:48;;;;;;;20.17;16.97;;;;;;;;;;5017181;28;20709;-75
2021/11/24 13:23:14;;;;;;;19.40;15.07;;;;;;;;;;5019244;28;20202;-78
2021/11/24 13:25:41;;;;;;;16.00;13.80;;;;;;;;;;5016967;28;20761;-81
2021/11/24 13:28:12;;;;;;;19.53;16.00;;;;;;;;;;5018429;28;20321;-76
2021/11/24 13:30:46;;;;;;;17.97;15.40;;;;;;;;;;5014805;28;20217;-75
2021/11/24 13:33:13;;;;;;;17.43;15.00;;;;;;;;;;5017043;28;20210;-75
2021/11/24 13:35:38;;;;;;;18.37;16.20;;;;;;;;;;5015303;28;20182;-78
2021/11/24 13:38:03;;;;;;;17.07;14.70;;;;;;;;;;5017658;28;20635;-74
2021/11/24 13:40:31;;;;;;;16.73;13.87;;;;;;;;;;5015511;28;20420;-79
2021/11/24 13:42:57;;;;;;;17.07;14.00;;;;;;;;;;5016741;28;20194;-78
2021/11/24 13:45:32;;;;;;;14.73;12.80;;;;;;;;;;5017960;28;20893;-77
2021/11/24 13:48:14;;;;;;;15.17;10.20;;;;;;;;;;5017940;28;20185;-80
2021/11/24 13:50:41;;;;;;;10.23;9.13;;;;;;;;;;5014338;28;20682;-77
2021/11/24 13:53:19;;;;;;;9.03;7.60;;;;;;;;;;5013918;28;20246;-76
2021/11/24 13:55:44;;;;;;;6.77;5.90;;;;;;;;;;5017413;28;20612;-76
2021/11/24 13:58:10;;;;;;;9.97;5.80;;;;;;;;;;5014906;28;20261;-77
2021/11/24 14:00:35;;;;;;;7.33;6.20;;;;;;;;;;5017602;28;20181;-76
2021/11/24 14:03:00;;;;;;;8.30;6.77;;;;;;;;;;5016427;28;20260;-77
2021/11/24 14:05:33;;;;;;;7.20;6.17;;;;;;;;;;5015412;28;20213;-74
2021/11/24 14:07:58;;;;;;;9.13;6.30;;;;;;;;;;5015130;28;20189;-79
2021/11/24 14:10:24;;;;;;;5.97;5.37;;;;;;;;;;5017893;28;20183;-77
2021/11/24 14:12:50;;;;;;;7.43;5.97;;;;;;;;;;5014587;28;20210;-79
2021/11/24 14:15:16;;;;;;;7.57;6.77;;;;;;;;;;5013165;28;20186;-74
2021/11/24 14:17:42;;;;;;;7.13;5.23;;;;;;;;;;5021687;28;20561;-77